Portada
METAR-TAF:

METAR-TAF

Aeropuertos :

Seúl-Incheon, Corea del Sur

Aeropuerto Internacional de Incheon

latitud: 37-28N, longitud: 126-27E, altitud: 7 m

Observación

El informe se hizo hace 32 minutos, a las 15:00 UTC
Viento 18 kt del norte
Temperatura -13°C
Humedad 36%
Presión 1028 hPa
Visibilidad 10 km o más
sin nubes por debajo de 1500 m y sin presencia de cumulonimbus.

METAR: RKSI 231500Z 35018KT CAVOK M13/M25 Q1028 NOSIG

Hora: 00:32 (15:32 UTC)

Pronóstico

El informe se hizo hace 4 horas y 32 minutos, a las 11:00 UTC
Pronóstico válido del 23 a las 12 UTC al 24 a las 18 UTC
Viento 13 kt del norte-noroeste
Visibilidad 10 km o más
sin nubes por debajo de 1500 m y sin presencia de cumulonimbus.
Temporalmente
del 24 a las 01 UTC al 24 a las 10 UTC
Viento 17 kt del norte-noroeste con ráfagas de 30 kt

TAF: RKSI 231100Z 2312/2418 33013KT CAVOK TNM15/2322Z TXM11/2405Z TEMPO 2401/2410 33017G30KT

Observaciones y pronósticos meteorológicos de más de 4000 aeropuertos (mensajes METAR y TAF).

Los puntos amarillos y rojos representan las estaciones disponibles.

Ponga el ratón en el punto deseado para ver el nombre de la estación.

Haga clic para ver las observaciones y los pronósticos meteorológicos.

Para cambiar el mapa : haga clic en los botones verdes con una cruz de color negro para hacer un zoom, en el botón verde con un guión para alejar o en las flechas verdes para mapas adyacentes.


METAR-TAF: